createdAt,value
2022-09-26T00:00:13.078Z,2.80
2022-09-26T00:02:42.109Z,4.57
2022-09-26T00:05:11.845Z,2.50
2022-09-26T00:07:40.854Z,2.15
2022-09-26T00:10:10.344Z,2.13
2022-09-26T00:12:39.266Z,2.30
2022-09-26T00:15:09.026Z,3.30
2022-09-26T00:17:39.298Z,3.75
2022-09-26T00:20:09.198Z,3.78
2022-09-26T00:22:38.336Z,2.55
2022-09-26T00:25:08.058Z,3.53
2022-09-26T00:27:37.125Z,3.10
2022-09-26T00:30:06.803Z,1.55
2022-09-26T00:32:36.072Z,3.20
2022-09-26T00:35:07.317Z,1.30
2022-09-26T00:37:36.493Z,5.93
2022-09-26T00:40:05.892Z,2.65
2022-09-26T00:42:36.110Z,1.45
2022-09-26T00:45:05.258Z,2.92
2022-09-26T00:47:38.527Z,1.02
2022-09-26T00:50:14.762Z,2.40
2022-09-26T00:52:46.260Z,4.97
2022-09-26T00:55:16.802Z,4.43
2022-09-26T00:57:47.753Z,1.88
2022-09-26T01:00:17.886Z,1.95
2022-09-26T01:02:48.452Z,3.28
2022-09-26T01:05:20.545Z,3.45
2022-09-26T01:07:51.385Z,2.88
2022-09-26T01:10:20.720Z,2.83
2022-09-26T01:12:49.653Z,2.15
2022-09-26T01:15:18.816Z,3.38
2022-09-26T01:17:51.225Z,3.05
2022-09-26T01:20:28.469Z,1.92
2022-09-26T01:23:27.670Z,5.78
2022-09-26T01:26:14.209Z,0.82
2022-09-26T01:28:53.574Z,3.83
2022-09-26T01:31:28.942Z,2.00
2022-09-26T01:34:02.338Z,1.52
2022-09-26T01:36:58.772Z,1.58
2022-09-26T01:39:33.699Z,2.38
2022-09-26T01:42:09.779Z,4.32
2022-09-26T01:44:41.825Z,3.30
2022-09-26T01:47:14.997Z,4.28
2022-09-26T01:49:48.700Z,1.23
2022-09-26T01:52:20.923Z,3.55
2022-09-26T01:54:55.093Z,1.00
2022-09-26T01:57:27.784Z,1.90
2022-09-26T01:59:58.613Z,4.65
2022-09-26T02:02:31.309Z,1.70
2022-09-26T02:05:02.940Z,3.22
2022-09-26T02:07:34.600Z,3.70
2022-09-26T02:10:05.414Z,1.88
2022-09-26T02:12:36.983Z,1.58
2022-09-26T02:15:09.366Z,1.75
2022-09-26T02:17:42.050Z,1.75
2022-09-26T02:20:12.762Z,4.20
2022-09-26T02:22:41.756Z,2.17
2022-09-26T02:25:11.813Z,2.47
2022-09-26T02:27:41.218Z,1.23
2022-09-26T02:30:12.220Z,3.35
2022-09-26T02:32:42.674Z,1.98
2022-09-26T02:35:35.692Z,2.53
2022-09-26T02:38:06.253Z,3.00
2022-09-26T02:40:43.240Z,1.50
2022-09-26T02:43:24.048Z,3.00
2022-09-26T02:45:59.206Z,2.15
2022-09-26T02:48:39.468Z,2.35
2022-09-26T02:53:51.739Z,5.68
2022-09-26T02:56:31.156Z,4.25
2022-09-26T02:59:04.816Z,3.80
2022-09-26T03:01:42.198Z,3.25
2022-09-26T03:04:18.420Z,4.50
2022-09-26T03:06:52.315Z,2.90
2022-09-26T03:09:23.143Z,3.13
2022-09-26T03:11:54.523Z,3.85
2022-09-26T03:14:23.596Z,3.67
2022-09-26T03:16:53.077Z,2.08
2022-09-26T03:19:28.076Z,1.52
2022-09-26T03:21:57.468Z,2.08
2022-09-26T03:24:26.736Z,4.38
2022-09-26T03:26:57.190Z,2.08
2022-09-26T03:29:27.382Z,5.05
2022-09-26T03:31:56.504Z,2.97
2022-09-26T03:34:27.351Z,2.40
2022-09-26T03:36:57.989Z,3.03
2022-09-26T03:39:27.256Z,2.17
2022-09-26T03:42:10.690Z,4.43
2022-09-26T03:44:41.994Z,2.20
2022-09-26T03:47:14.427Z,2.92
2022-09-26T03:49:47.469Z,3.78
2022-09-26T03:52:17.108Z,5.10
2022-09-26T03:54:47.158Z,4.97
2022-09-26T03:57:18.594Z,1.95
2022-09-26T03:59:57.179Z,4.13
2022-09-26T04:02:32.307Z,3.92
2022-09-26T04:05:17.669Z,1.83
2022-09-26T04:07:47.306Z,4.40
2022-09-26T04:10:16.323Z,2.17
2022-09-26T04:12:46.624Z,4.35
2022-09-26T04:15:17.021Z,3.95
2022-09-26T04:17:46.602Z,5.35
2022-09-26T04:20:17.606Z,4.00
2022-09-26T04:22:47.125Z,7.25
2022-09-26T04:25:16.086Z,2.78
2022-09-26T04:27:45.150Z,3.72
2022-09-26T04:30:14.755Z,2.75
2022-09-26T04:32:49.581Z,2.45
2022-09-26T04:35:35.628Z,3.65
2022-09-26T04:38:04.847Z,5.25
2022-09-26T04:40:38.318Z,2.47
2022-09-26T04:43:13.975Z,2.45
2022-09-26T04:45:43.512Z,1.93
2022-09-26T04:48:14.010Z,3.45
2022-09-26T04:50:46.926Z,2.30
2022-09-26T04:53:16.214Z,7.18
2022-09-26T04:55:55.186Z,2.35
2022-09-26T04:58:24.178Z,1.85
2022-09-26T05:00:53.175Z,2.22
2022-09-26T05:03:38.930Z,1.40
2022-09-26T05:06:10.151Z,1.05
2022-09-26T05:08:39.388Z,1.80
2022-09-26T05:11:09.278Z,1.42
2022-09-26T05:13:39.485Z,1.27
2022-09-26T05:16:09.756Z,0.60
2022-09-26T05:18:41.847Z,0.85
2022-09-26T05:21:12.400Z,2.67
2022-09-26T05:23:59.985Z,1.38
2022-09-26T05:26:31.277Z,1.75
2022-09-26T05:29:08.510Z,1.73
2022-09-26T05:31:46.626Z,1.00
2022-09-26T05:34:19.807Z,2.03
2022-09-26T05:36:51.803Z,0.90
2022-09-26T05:39:42.517Z,1.70
2022-09-26T05:42:13.266Z,3.20
2022-09-26T05:44:42.274Z,1.58
2022-09-26T05:47:14.678Z,2.35
2022-09-26T05:49:44.081Z,1.38
2022-09-26T05:52:22.813Z,1.90
2022-09-26T05:54:53.562Z,2.35
2022-09-26T05:57:52.057Z,2.25
2022-09-26T06:00:22.831Z,1.10
2022-09-26T06:02:56.917Z,2.05
2022-09-26T06:05:36.646Z,1.35
2022-09-26T06:08:18.748Z,4.10
2022-09-26T06:10:53.284Z,3.13
2022-09-26T06:13:22.548Z,2.75
2022-09-26T06:15:52.745Z,5.13
2022-09-26T06:18:22.800Z,2.17
2022-09-26T06:20:52.258Z,1.63
2022-09-26T06:23:23.010Z,1.65
2022-09-26T06:25:52.172Z,5.32
2022-09-26T06:28:21.290Z,3.83
2022-09-26T06:30:50.439Z,2.78
2022-09-26T06:33:42.735Z,3.25
2022-09-26T06:36:25.267Z,1.63
2022-09-26T06:38:56.471Z,1.13
2022-09-26T06:41:26.575Z,1.20
2022-09-26T06:43:55.869Z,1.08
2022-09-26T06:46:48.853Z,1.35
2022-09-26T06:49:23.798Z,1.63
2022-09-26T06:52:11.646Z,1.13
2022-09-26T06:54:42.257Z,1.10
2022-09-26T06:57:15.329Z,1.08
2022-09-26T06:59:45.102Z,1.95
2022-09-26T07:02:53.167Z,1.63
2022-09-26T07:05:30.125Z,1.35
2022-09-26T07:07:59.080Z,1.92
2022-09-26T07:10:34.456Z,3.15
2022-09-26T07:13:09.831Z,1.75
2022-09-26T07:15:41.321Z,3.72
2022-09-26T07:18:32.720Z,1.02
2022-09-26T07:21:37.248Z,2.08
2022-09-26T07:24:27.349Z,1.88
2022-09-26T07:26:57.888Z,0.50
2022-09-26T07:29:27.945Z,2.70
2022-09-26T07:31:57.694Z,2.03
2022-09-26T07:34:48.108Z,0.70
2022-09-26T07:37:18.043Z,1.05
2022-09-26T07:39:53.245Z,1.48
2022-09-26T07:42:24.843Z,3.50
2022-09-26T07:45:21.903Z,1.70
2022-09-26T07:48:01.545Z,3.10
2022-09-26T07:50:51.637Z,1.67
2022-09-26T07:53:38.728Z,1.35
2022-09-26T07:56:26.583Z,2.50
2022-09-26T07:59:05.453Z,2.78
2022-09-26T08:01:58.078Z,2.30
2022-09-26T08:04:36.851Z,4.85
2022-09-26T08:07:06.204Z,1.63
2022-09-26T08:09:41.120Z,2.10
2022-09-26T08:12:43.536Z,3.30
2022-09-26T08:15:34.520Z,1.10
2022-09-26T08:18:07.259Z,2.47
2022-09-26T08:20:38.807Z,1.27
2022-09-26T08:23:08.084Z,5.20
2022-09-26T08:25:41.930Z,3.97
2022-09-26T08:28:34.388Z,3.83
2022-09-26T08:31:05.548Z,1.77
2022-09-26T08:33:38.972Z,2.33
2022-09-26T08:36:08.988Z,5.20
2022-09-26T08:38:59.226Z,6.75
2022-09-26T08:41:52.427Z,5.50
2022-09-26T08:44:55.984Z,5.10
2022-09-26T08:47:53.668Z,7.30
2022-09-26T08:50:41.172Z,19.02
2022-09-26T08:53:13.666Z,8.75
2022-09-26T08:55:53.806Z,15.07
2022-09-26T08:58:29.079Z,16.13
2022-09-26T09:01:03.455Z,11.57
2022-09-26T09:03:50.254Z,7.60
2022-09-26T09:06:20.227Z,6.22
2022-09-26T09:08:51.459Z,9.15
2022-09-26T09:11:51.627Z,10.65
2022-09-26T09:14:32.689Z,6.30
2022-09-26T09:17:07.978Z,8.50
2022-09-26T09:20:03.786Z,11.35
2022-09-26T09:22:57.695Z,14.70
2022-09-26T09:25:32.817Z,7.03
2022-09-26T09:28:08.795Z,8.65
2022-09-26T09:30:43.632Z,7.45
2022-09-26T09:33:16.205Z,17.38
2022-09-26T09:35:58.525Z,13.00
2022-09-26T09:38:38.604Z,10.80
2022-09-26T09:41:38.364Z,10.93
2022-09-26T09:44:22.980Z,11.80
2022-09-26T09:46:55.060Z,9.07
2022-09-26T09:49:26.522Z,11.18
2022-09-26T09:52:03.264Z,13.75
2022-09-26T09:54:41.780Z,11.93
2022-09-26T09:57:36.691Z,9.50
2022-09-26T10:00:11.003Z,17.88
2022-09-26T10:03:04.368Z,10.10
2022-09-26T10:05:41.795Z,12.52
2022-09-26T10:08:17.736Z,12.35
2022-09-26T10:11:24.213Z,13.60
2022-09-26T10:14:04.744Z,14.68
2022-09-26T10:17:14.499Z,15.68
2022-09-26T10:19:51.341Z,12.07
2022-09-26T10:22:25.192Z,10.98
2022-09-26T10:25:01.620Z,25.27
2022-09-26T10:27:37.719Z,12.50
2022-09-26T10:30:11.950Z,12.80
2022-09-26T10:32:47.533Z,17.30
2022-09-26T10:35:43.827Z,13.73
2022-09-26T10:38:21.160Z,12.35
2022-09-26T10:40:56.116Z,13.90
2022-09-26T10:43:28.744Z,12.57
2022-09-26T10:46:08.149Z,10.43
2022-09-26T10:49:18.153Z,15.00
2022-09-26T10:52:11.698Z,15.48
2022-09-26T10:54:46.104Z,14.90
2022-09-26T10:57:24.287Z,11.23
2022-09-26T10:59:54.925Z,11.80
2022-09-26T11:02:25.928Z,9.70
2022-09-26T11:05:15.573Z,16.27
2022-09-26T11:08:23.432Z,10.13
2022-09-26T11:11:25.058Z,14.65
2022-09-26T11:14:08.375Z,13.18
2022-09-26T11:16:52.324Z,9.90
2022-09-26T11:19:28.222Z,7.22
2022-09-26T11:22:03.248Z,16.13
2022-09-26T11:24:37.461Z,12.10
2022-09-26T11:27:13.964Z,15.35
2022-09-26T11:29:49.145Z,12.43
2022-09-26T11:32:26.191Z,11.32
2022-09-26T11:35:02.650Z,9.70
2022-09-26T11:37:54.211Z,10.23
2022-09-26T11:40:30.149Z,11.40
2022-09-26T11:43:11.119Z,9.40
2022-09-26T11:45:52.511Z,10.35
2022-09-26T11:48:58.003Z,14.80
2022-09-26T11:51:52.429Z,6.00
2022-09-26T11:54:26.829Z,9.77
2022-09-26T11:56:59.828Z,7.00
2022-09-26T11:59:36.225Z,6.55
2022-09-26T12:02:21.959Z,6.85
2022-09-26T12:05:02.257Z,6.00
2022-09-26T12:07:35.226Z,7.10
2022-09-26T12:10:10.836Z,8.00
2022-09-26T12:12:44.013Z,7.50
2022-09-26T12:15:24.069Z,8.15
2022-09-26T12:18:02.005Z,8.63
2022-09-26T12:20:36.386Z,8.02
2022-09-26T12:23:09.483Z,6.57
2022-09-26T12:25:43.377Z,8.38
2022-09-26T12:28:21.536Z,4.13
2022-09-26T12:30:56.662Z,9.48
2022-09-26T12:33:36.973Z,7.00
2022-09-26T12:36:11.609Z,7.07
2022-09-26T12:38:58.525Z,2.80
2022-09-26T12:41:38.255Z,3.83
2022-09-26T12:44:27.037Z,5.90
2022-09-26T12:47:20.163Z,6.00
2022-09-26T12:49:59.307Z,5.30
2022-09-26T12:52:35.990Z,6.35
2022-09-26T12:55:10.330Z,6.35
2022-09-26T12:57:43.352Z,5.68
2022-09-26T13:00:16.808Z,2.58
2022-09-26T13:03:06.755Z,3.78
2022-09-26T13:05:56.826Z,5.25
2022-09-26T13:08:30.599Z,2.90
2022-09-26T13:11:04.963Z,4.30
2022-09-26T13:13:52.176Z,1.80
2022-09-26T13:16:27.059Z,3.95
2022-09-26T13:19:02.211Z,2.60
2022-09-26T13:21:38.514Z,3.53
2022-09-26T13:24:13.958Z,5.38
2022-09-26T13:26:45.132Z,1.90
2022-09-26T13:29:23.417Z,6.85
2022-09-26T13:31:55.973Z,2.30
2022-09-26T13:34:28.704Z,3.60
2022-09-26T13:36:59.882Z,5.00
2022-09-26T13:39:34.349Z,2.80
2022-09-26T13:42:06.669Z,2.28
2022-09-26T13:47:13.107Z,4.85
2022-09-26T13:49:51.352Z,4.55
2022-09-26T13:52:25.218Z,5.45
2022-09-26T13:55:00.446Z,2.97
2022-09-26T13:57:48.064Z,4.28
2022-09-26T14:00:40.484Z,4.75
2022-09-26T14:05:51.786Z,3.50
2022-09-26T14:08:49.193Z,2.72
2022-09-26T14:11:29.941Z,4.93
2022-09-26T14:14:18.170Z,3.15
2022-09-26T14:16:49.638Z,3.78
2022-09-26T14:19:29.737Z,2.88
2022-09-26T14:22:03.230Z,1.08
2022-09-26T14:24:34.824Z,3.55
2022-09-26T14:27:22.002Z,3.83
2022-09-26T14:30:03.384Z,2.78
2022-09-26T14:32:37.703Z,2.83
2022-09-26T14:35:20.315Z,2.75
2022-09-26T14:37:50.292Z,3.40
2022-09-26T14:40:26.263Z,3.22
2022-09-26T14:42:58.995Z,4.40
2022-09-26T14:45:34.361Z,3.00
2022-09-26T14:48:09.793Z,6.13
2022-09-26T14:50:45.024Z,4.47
2022-09-26T14:53:20.793Z,4.13
2022-09-26T14:55:59.322Z,3.97
2022-09-26T14:58:34.798Z,2.30
2022-09-26T15:01:08.075Z,10.25
2022-09-26T15:03:37.500Z,4.47
2022-09-26T15:06:09.044Z,5.18
2022-09-26T15:08:39.538Z,4.60
2022-09-26T15:11:08.876Z,5.97
2022-09-26T15:13:39.448Z,5.05
2022-09-26T15:16:26.250Z,5.57
2022-09-26T15:18:57.169Z,7.53
2022-09-26T15:21:33.330Z,5.38
2022-09-26T15:24:04.688Z,7.00
2022-09-26T15:26:35.325Z,6.10
2022-09-26T15:29:06.358Z,5.05
2022-09-26T15:31:46.143Z,5.35
2022-09-26T15:34:17.576Z,6.30
2022-09-26T15:36:48.417Z,5.80
2022-09-26T15:39:53.119Z,2.60
2022-09-26T15:42:46.742Z,6.32
2022-09-26T15:45:34.138Z,6.72
2022-09-26T15:48:06.082Z,4.63
2022-09-26T15:50:41.618Z,6.30
2022-09-26T15:53:16.378Z,4.97
2022-09-26T15:55:49.249Z,6.35
2022-09-26T15:58:22.744Z,5.03
2022-09-26T16:01:06.406Z,5.35
2022-09-26T16:03:46.092Z,4.15
2022-09-26T16:06:25.226Z,5.30
2022-09-26T16:08:57.372Z,6.28
2022-09-26T16:14:06.151Z,4.03
2022-09-26T16:16:36.721Z,5.63
2022-09-26T16:19:09.211Z,5.05
2022-09-26T16:21:40.175Z,4.25
2022-09-26T16:24:30.694Z,6.93
2022-09-26T16:27:00.190Z,5.75
2022-09-26T16:29:36.860Z,6.90
2022-09-26T16:32:06.807Z,6.53
2022-09-26T16:34:37.805Z,5.80
2022-09-26T16:37:07.214Z,6.45
2022-09-26T16:39:36.829Z,4.88
2022-09-26T16:42:15.035Z,4.32
2022-09-26T16:44:51.333Z,5.28
2022-09-26T16:47:41.712Z,4.43
2022-09-26T16:50:27.668Z,9.32
2022-09-26T16:52:57.498Z,6.72
2022-09-26T16:55:27.567Z,4.53
2022-09-26T16:57:58.346Z,5.38
2022-09-26T17:00:52.141Z,6.07
2022-09-26T17:03:23.406Z,3.45
2022-09-26T17:05:55.526Z,6.90
2022-09-26T17:10:56.553Z,7.22
2022-09-26T17:13:27.092Z,3.37
2022-09-26T17:15:57.512Z,4.32
2022-09-26T17:18:29.433Z,3.97
2022-09-26T17:21:00.063Z,3.47
2022-09-26T17:23:45.077Z,3.97
2022-09-26T17:26:18.751Z,1.92
2022-09-26T17:28:47.944Z,1.05
2022-09-26T17:31:20.013Z,5.55
2022-09-26T17:33:52.330Z,1.83
2022-09-26T17:36:24.351Z,3.00
2022-09-26T17:38:53.553Z,2.00
2022-09-26T17:41:25.295Z,1.52
2022-09-26T17:43:59.038Z,2.35
2022-09-26T17:46:30.263Z,4.43
2022-09-26T17:49:00.506Z,3.57
2022-09-26T17:51:31.473Z,2.42
2022-09-26T17:54:00.673Z,3.45
2022-09-26T17:56:29.699Z,5.85
2022-09-26T17:58:59.382Z,3.88
2022-09-26T18:01:33.620Z,2.15
2022-09-26T18:04:06.411Z,2.70
2022-09-26T18:06:37.370Z,1.38
2022-09-26T18:09:10.019Z,1.42
2022-09-26T18:11:41.755Z,12.82
2022-09-26T18:14:15.475Z,3.95
2022-09-26T18:16:44.859Z,12.57
2022-09-26T18:19:14.262Z,3.83
2022-09-26T18:21:44.577Z,4.35
2022-09-26T18:24:19.623Z,2.85
2022-09-26T18:26:50.854Z,5.70
2022-09-26T18:29:22.960Z,2.80
2022-09-26T18:31:52.256Z,4.22
2022-09-26T18:34:22.799Z,4.13
2022-09-26T18:36:57.011Z,5.95
2022-09-26T18:39:26.403Z,4.00
2022-09-26T18:42:06.117Z,3.60
2022-09-26T18:44:35.774Z,2.65
2022-09-26T18:47:06.889Z,4.45
2022-09-26T18:49:40.081Z,5.38
2022-09-26T18:52:15.289Z,2.45
2022-09-26T18:54:45.676Z,3.15
2022-09-26T18:57:32.852Z,4.60
2022-09-26T19:00:02.669Z,3.53
2022-09-26T19:02:37.103Z,2.47
2022-09-26T19:05:07.565Z,3.72
2022-09-26T19:07:38.276Z,3.88
2022-09-26T19:10:08.484Z,8.02
2022-09-26T19:12:39.537Z,5.15
2022-09-26T19:15:14.099Z,6.80
2022-09-26T19:17:43.830Z,4.88
2022-09-26T19:20:15.722Z,4.45
2022-09-26T19:22:46.974Z,3.88
2022-09-26T19:25:16.131Z,3.73
2022-09-26T19:27:49.705Z,3.30
2022-09-26T19:30:21.382Z,2.47
2022-09-26T19:32:53.698Z,3.60
2022-09-26T19:35:26.684Z,6.75
2022-09-26T19:38:02.030Z,3.78
2022-09-26T19:40:32.525Z,1.95
2022-09-26T19:43:02.263Z,4.97
2022-09-26T19:45:32.439Z,5.88
2022-09-26T19:48:01.920Z,3.00
2022-09-26T19:50:31.683Z,3.95
2022-09-26T19:53:04.583Z,2.95
2022-09-26T19:55:33.944Z,4.97
2022-09-26T19:58:06.694Z,6.00
2022-09-26T20:00:41.342Z,1.67
2022-09-26T20:03:14.978Z,2.75
2022-09-26T20:05:44.239Z,7.65
2022-09-26T20:08:16.097Z,3.67
2022-09-26T20:10:46.402Z,4.65
2022-09-26T20:13:15.798Z,5.53
2022-09-26T20:15:46.351Z,1.10
2022-09-26T20:18:17.845Z,4.32
2022-09-26T20:20:48.516Z,5.20
2022-09-26T20:23:22.187Z,2.92
2022-09-26T20:25:52.050Z,3.15
2022-09-26T20:28:21.186Z,2.38
2022-09-26T20:30:54.337Z,3.17
2022-09-26T20:33:24.547Z,2.60
2022-09-26T20:35:58.957Z,3.90
2022-09-26T20:38:32.107Z,1.80
2022-09-26T20:41:02.440Z,0.88
2022-09-26T20:43:33.638Z,3.22
2022-09-26T20:46:12.198Z,1.83
2022-09-26T20:48:47.520Z,1.88
2022-09-26T20:51:18.988Z,3.22
2022-09-26T20:53:49.516Z,3.55
2022-09-26T20:56:20.827Z,1.80
2022-09-26T20:58:50.320Z,3.40
2022-09-26T21:01:20.628Z,4.32
2022-09-26T21:03:50.379Z,2.90
2022-09-26T21:06:21.384Z,3.35
2022-09-26T21:08:51.694Z,2.75
2022-09-26T21:11:21.548Z,2.42
2022-09-26T21:13:51.056Z,1.25
2022-09-26T21:16:21.833Z,3.28
2022-09-26T21:18:53.949Z,3.78
2022-09-26T21:24:02.527Z,2.55
2022-09-26T21:26:32.237Z,6.68
2022-09-26T21:29:01.975Z,3.55
2022-09-26T21:31:35.952Z,5.10
2022-09-26T21:34:05.644Z,3.83
2022-09-26T21:36:38.631Z,3.20
2022-09-26T21:39:10.916Z,5.22
2022-09-26T21:41:40.106Z,2.05
2022-09-26T21:44:14.838Z,1.13
2022-09-26T21:46:48.600Z,1.85
2022-09-26T21:49:26.121Z,1.30
2022-09-26T21:52:02.924Z,1.77
2022-09-26T21:54:52.005Z,0.95
2022-09-26T21:57:24.464Z,2.38
2022-09-26T21:59:54.368Z,2.03
2022-09-26T22:02:26.077Z,2.78
2022-09-26T22:04:58.070Z,2.40
2022-09-26T22:07:27.214Z,3.92
2022-09-26T22:09:58.223Z,3.05
2022-09-26T22:12:27.339Z,3.35
2022-09-26T22:14:59.403Z,2.40
2022-09-26T22:17:29.112Z,1.38
2022-09-26T22:19:58.203Z,2.08
2022-09-26T22:22:27.525Z,7.05
2022-09-26T22:25:02.911Z,2.95
2022-09-26T22:27:32.269Z,4.60
2022-09-26T22:30:01.542Z,2.88
2022-09-26T22:32:31.330Z,1.45
2022-09-26T22:35:00.691Z,4.90
2022-09-26T22:37:29.846Z,1.42
2022-09-26T22:40:00.612Z,2.22
2022-09-26T22:42:29.798Z,2.00
2022-09-26T22:44:58.957Z,1.92
2022-09-26T22:47:28.237Z,2.67
2022-09-26T22:49:57.422Z,1.98
2022-09-26T22:52:26.386Z,2.72
2022-09-26T22:54:55.873Z,1.48
2022-09-26T22:57:26.317Z,2.95
2022-09-26T22:59:55.259Z,3.03
2022-09-26T23:02:24.623Z,4.93
2022-09-26T23:04:53.573Z,1.92
2022-09-26T23:07:22.489Z,1.90
2022-09-26T23:09:51.529Z,1.90
2022-09-26T23:12:20.893Z,2.85
2022-09-26T23:14:51.182Z,2.95
2022-09-26T23:17:20.093Z,3.13
2022-09-26T23:19:49.543Z,2.03
2022-09-26T23:22:18.709Z,5.35
2022-09-26T23:24:47.866Z,3.17
2022-09-26T23:27:16.922Z,3.72
2022-09-26T23:29:46.024Z,1.30
2022-09-26T23:32:16.377Z,4.75
2022-09-26T23:34:45.622Z,1.38
2022-09-26T23:37:14.773Z,1.85
2022-09-26T23:39:43.812Z,5.10
2022-09-26T23:42:13.975Z,2.67
2022-09-26T23:44:43.051Z,1.27
2022-09-26T23:47:12.008Z,5.40
2022-09-26T23:49:42.344Z,1.23
2022-09-26T23:52:11.399Z,2.28
2022-09-26T23:54:40.668Z,2.75
2022-09-26T23:57:09.916Z,2.55
2022-09-26T23:59:39.060Z,4.28
